Time;durP1;ratioP1;P1;durP2;ratioP2;P2;SDS_P1;SDS_P2;PMS_P1;PMS_P2;Temp;Humidity;BMP_temperature;BMP_pressure;BME280_temperature;BME280_humidity;BME280_pressure;Samples;Min_cycle;Max_cycle;Signal;HPM_P1;HPM_P2
2022/11/03 03:01:15;;;;;;;16.50;15.10;;;5.10;99.90;;;;;;5675377;23;20239;-79
2022/11/03 03:03:46;;;;;;;15.83;14.43;;;5.10;99.90;;;;;;4935409;29;20195;-81
2022/11/03 03:06:18;;;;;;;16.33;14.97;;;5.00;99.90;;;;;;4937346;29;20203;-81
2022/11/03 03:08:50;;;;;;;16.03;14.63;;;5.00;99.90;;;;;;4931906;29;20687;-81
2022/11/03 03:11:35;;;;;;;17.57;15.87;;;5.00;99.90;;;;;;4935594;29;20227;-81
2022/11/03 03:14:04;;;;;;;16.20;14.80;;;5.00;99.90;;;;;;4935798;29;20286;-81
2022/11/03 03:16:35;;;;;;;17.03;15.53;;;5.00;99.90;;;;;;4936652;29;20250;-81
2022/11/03 03:19:07;;;;;;;15.70;14.50;;;5.00;99.90;;;;;;4937712;29;20273;-81
2022/11/03 03:21:42;;;;;;;15.17;14.07;;;5.00;99.90;;;;;;4935378;29;20227;-81
2022/11/03 03:24:18;;;;;;;16.63;15.13;;;5.00;99.90;;;;;;4936162;29;20209;-81
2022/11/03 03:26:48;;;;;;;16.70;15.27;;;4.90;99.90;;;;;;4937273;29;20726;-81
2022/11/03 03:29:19;;;;;;;15.40;14.10;;;5.00;99.90;;;;;;4937017;29;20230;-81
2022/11/03 03:31:52;;;;;;;14.93;13.80;;;4.90;99.90;;;;;;4935523;29;20215;-81
2022/11/03 03:34:21;;;;;;;16.00;14.53;;;4.90;99.90;;;;;;4936921;29;20203;-81
2022/11/03 03:36:49;;;;;;;15.13;14.00;;;4.90;99.90;;;;;;4936744;29;20191;-81
2022/11/03 03:39:20;;;;;;;16.37;14.97;;;4.80;99.90;;;;;;4936759;29;20668;-81
2022/11/03 03:41:48;;;;;;;16.90;15.40;;;4.90;99.90;;;;;;4935692;29;20227;-84
2022/11/03 03:44:16;;;;;;;16.73;15.37;;;4.90;99.90;;;;;;4936060;29;20209;-81
2022/11/03 03:46:47;;;;;;;16.87;15.37;;;4.80;99.90;;;;;;4936307;29;20246;-81
2022/11/03 03:49:15;;;;;;;15.80;14.50;;;4.80;99.90;;;;;;4936077;29;20207;-82
2022/11/03 03:51:43;;;;;;;17.50;15.90;;;4.80;99.90;;;;;;4939092;29;20215;-82
2022/11/03 03:54:10;;;;;;;16.63;14.90;;;4.80;99.90;;;;;;4940490;28;20207;-83
2022/11/03 03:56:44;;;;;;;16.37;14.93;;;4.80;99.90;;;;;;4936446;29;20196;-83
2022/11/03 03:59:11;;;;;;;17.10;15.50;;;4.70;99.90;;;;;;4937135;29;20238;-84
2022/11/03 04:01:40;;;;;;;15.90;14.50;;;4.70;99.90;;;;;;4936615;29;20229;-83
2022/11/03 04:04:07;;;;;;;16.40;14.93;;;4.70;99.90;;;;;;4935787;29;20255;-83
2022/11/03 04:06:35;;;;;;;18.00;16.30;;;4.70;99.90;;;;;;4937456;29;20229;-83
2022/11/03 04:09:05;;;;;;;17.37;15.73;;;4.60;99.90;;;;;;4936608;29;20203;-83
2022/11/03 04:22:32;;;;;;;17.60;16.30;;;4.60;99.90;;;;;;4936496;29;20218;-82
2022/11/03 04:25:00;;;;;;;16.90;15.40;;;4.50;99.90;;;;;;4936015;29;20199;-83
2022/11/03 04:27:30;;;;;;;16.97;15.67;;;4.50;99.90;;;;;;4932893;29;20201;-82
2022/11/03 04:30:02;;;;;;;18.03;16.37;;;4.50;99.90;;;;;;4934789;29;20274;-82
2022/11/03 04:32:29;;;;;;;17.47;15.67;;;4.50;99.90;;;;;;4927812;29;20211;-84
2022/11/03 04:34:56;;;;;;;17.80;16.17;;;4.40;99.90;;;;;;4936347;29;20195;-82
2022/11/03 04:37:26;;;;;;;16.50;15.20;;;4.40;99.90;;;;;;4936461;29;20192;-82
2022/11/03 04:39:57;;;;;;;16.10;14.97;;;4.40;99.90;;;;;;4936859;29;20199;-81
2022/11/03 04:42:24;;;;;;;16.33;15.03;;;4.40;99.90;;;;;;4931193;29;20223;-85
2022/11/03 04:44:51;;;;;;;15.30;14.10;;;4.30;99.90;;;;;;4936849;29;20614;-83
2022/11/03 04:47:18;;;;;;;16.30;15.03;;;4.30;99.90;;;;;;4936679;29;20589;-82
2022/11/03 04:49:48;;;;;;;15.77;14.57;;;4.30;99.90;;;;;;4936605;29;20206;-84
2022/11/03 04:52:17;;;;;;;15.83;14.63;;;4.30;99.90;;;;;;4936980;29;20239;-82
2022/11/03 04:54:46;;;;;;;16.10;14.90;;;4.20;99.90;;;;;;4935689;29;20742;-82
2022/11/03 04:57:16;;;;;;;15.57;14.43;;;4.30;99.90;;;;;;4928080;29;20200;-80
2022/11/03 04:59:46;;;;;;;15.93;14.63;;;4.40;99.90;;;;;;4929882;29;20618;-79
2022/11/03 05:02:17;;;;;;;15.50;14.40;;;4.40;99.90;;;;;;4949680;28;20227;-81
2022/11/03 05:04:44;;;;;;;15.67;14.63;;;4.30;99.90;;;;;;4927220;29;20204;-81
2022/11/03 05:07:23;;;;;;;16.67;15.57;;;4.30;99.90;;;;;;4932266;29;20200;-82
2022/11/03 05:09:51;;;;;;;15.30;14.20;;;4.40;99.90;;;;;;4929749;29;20202;-80
2022/11/03 05:12:20;;;;;;;16.20;15.00;;;4.30;99.90;;;;;;4934686;29;20219;-87
2022/11/03 05:14:47;;;;;;;16.33;15.23;;;4.30;99.90;;;;;;4936543;29;20196;-82
2022/11/03 05:17:23;;;;;;;15.80;14.60;;;4.40;99.90;;;;;;4935761;29;20218;-82
2022/11/03 05:19:55;;;;;;;16.73;15.40;;;4.40;99.90;;;;;;4937396;29;20207;-81
2022/11/03 05:22:25;;;;;;;15.47;14.47;;;4.40;99.90;;;;;;4934899;29;20715;-81
2022/11/03 05:24:57;;;;;;;14.90;14.00;;;4.40;99.90;;;;;;4942112;28;20204;-82
2022/11/03 05:27:26;;;;;;;15.37;14.33;;;4.40;99.90;;;;;;4938218;29;20290;-82
2022/11/03 05:29:57;;;;;;;14.70;13.70;;;4.30;99.90;;;;;;4927063;29;20200;-81
2022/11/03 05:32:28;;;;;;;15.90;14.90;;;4.30;99.90;;;;;;4926236;29;20218;-82
2022/11/03 05:34:56;;;;;;;15.33;14.33;;;4.40;99.90;;;;;;4919215;29;20211;-82
2022/11/03 05:37:27;;;;;;;15.90;14.80;;;4.40;99.90;;;;;;4929290;29;20203;-81
2022/11/03 05:39:57;;;;;;;15.73;14.63;;;4.40;99.90;;;;;;4939701;29;20215;-81
2022/11/03 05:42:34;;;;;;;15.57;14.60;;;4.40;99.90;;;;;;4938899;29;20306;-81
2022/11/03 05:45:02;;;;;;;16.37;15.27;;;4.40;99.90;;;;;;4938299;29;20281;-82
2022/11/03 05:47:36;;;;;;;15.93;14.83;;;4.30;99.90;;;;;;4938702;29;20195;-82
2022/11/03 05:50:14;;;;;;;16.07;14.97;;;4.30;99.90;;;;;;4935461;29;20203;-81
2022/11/03 05:52:42;;;;;;;16.10;14.70;;;4.30;99.90;;;;;;4938427;29;20298;-83
2022/11/03 05:55:21;;;;;;;15.87;14.73;;;4.20;99.90;;;;;;4939149;29;20195;-83
2022/11/03 05:57:49;;;;;;;15.03;14.03;;;4.20;99.90;;;;;;4939781;29;20615;-79
2022/11/03 06:00:27;;;;;;;15.20;14.27;;;4.20;99.90;;;;;;4940537;29;20199;-82
2022/11/03 06:02:54;;;;;;;16.27;15.10;;;4.20;99.90;;;;;;4939187;29;20702;-82
2022/11/03 06:05:23;;;;;;;15.73;14.73;;;4.20;99.90;;;;;;4937904;29;20298;-83
2022/11/03 06:07:52;;;;;;;15.70;14.60;;;4.10;99.90;;;;;;4938064;29;20200;-79
2022/11/03 06:10:24;;;;;;;16.93;15.17;;;4.10;99.90;;;;;;4937316;29;20210;-79
2022/11/03 06:12:56;;;;;;;15.57;14.43;;;4.00;99.90;;;;;;4940430;29;20206;-83
2022/11/03 06:15:29;;;;;;;15.47;14.47;;;4.00;99.90;;;;;;4931468;29;20250;-83
2022/11/03 06:17:56;;;;;;;15.10;14.13;;;4.10;99.90;;;;;;4930833;29;20206;-85
2022/11/03 06:20:23;;;;;;;16.10;14.80;;;4.10;99.90;;;;;;4927124;29;20258;-84
2022/11/03 06:22:54;;;;;;;16.00;14.90;;;4.10;99.90;;;;;;4927107;29;20227;-83
2022/11/03 06:25:27;;;;;;;16.20;15.00;;;4.10;99.90;;;;;;4924570;29;20200;-83
2022/11/03 06:27:59;;;;;;;15.47;14.37;;;4.10;99.90;;;;;;4927367;29;20203;-85
2022/11/03 06:30:29;;;;;;;16.50;15.40;;;4.10;99.90;;;;;;4938383;29;20322;-84
2022/11/03 06:32:58;;;;;;;16.00;14.90;;;4.10;99.90;;;;;;4936759;29;20211;-83
2022/11/03 06:35:25;;;;;;;16.57;15.37;;;4.10;99.90;;;;;;4937032;29;20207;-85
2022/11/03 06:37:52;;;;;;;15.13;14.13;;;4.20;99.90;;;;;;4938197;29;20199;-83
2022/11/03 06:40:37;;;;;;;16.53;15.43;;;4.20;99.90;;;;;;4930012;29;20205;-83
2022/11/03 06:43:27;;;;;;;15.80;14.80;;;4.20;99.90;;;;;;4936545;29;20656;-86
2022/11/03 06:45:57;;;;;;;15.53;14.53;;;4.40;99.90;;;;;;4935549;29;20243;-82
2022/11/03 06:48:27;;;;;;;15.97;14.87;;;4.50;99.90;;;;;;4938856;29;20239;-82
2022/11/03 06:50:54;;;;;;;16.30;15.20;;;4.60;99.90;;;;;;4938883;29;20219;-81
2022/11/03 06:53:25;;;;;;;16.40;15.20;;;4.70;99.90;;;;;;4938559;29;20210;-82
2022/11/03 06:55:51;;;;;;;16.23;15.07;;;4.70;99.90;;;;;;4938604;29;20199;-82
2022/11/03 06:58:26;;;;;;;15.70;14.60;;;4.80;99.90;;;;;;4940840;29;20210;-81
2022/11/03 07:00:57;;;;;;;15.57;14.57;;;4.80;99.90;;;;;;4939336;29;20625;-82
2022/11/03 07:03:27;;;;;;;15.27;14.27;;;5.00;99.90;;;;;;4939171;29;20215;-82
2022/11/03 07:05:59;;;;;;;16.20;15.10;;;5.10;99.90;;;;;;4940156;29;20195;-82
2022/11/03 07:08:30;;;;;;;15.73;14.63;;;5.10;99.90;;;;;;4939902;29;20206;-82
2022/11/03 07:11:01;;;;;;;15.10;14.10;;;5.30;99.90;;;;;;4939938;29;20215;-82
2022/11/03 07:13:31;;;;;;;15.20;14.10;;;5.50;99.90;;;;;;4930938;29;20207;-82
2022/11/03 07:15:59;;;;;;;15.17;14.17;;;5.70;99.90;;;;;;4937444;29;20763;-82
2022/11/03 07:18:29;;;;;;;15.70;14.60;;;5.90;99.90;;;;;;4940634;29;20200;-81
2022/11/03 07:20:57;;;;;;;15.07;14.03;;;6.10;99.90;;;;;;4938580;29;20240;-82
2022/11/03 07:23:28;;;;;;;14.93;13.93;;;6.20;99.90;;;;;;4938699;29;20199;-81
2022/11/03 07:25:59;;;;;;;14.40;13.50;;;6.40;99.90;;;;;;4937864;29;20209;-80
2022/11/03 07:28:32;;;;;;;15.90;14.90;;;6.40;99.90;;;;;;4939614;29;20197;-82
2022/11/03 07:31:10;;;;;;;15.03;13.93;;;6.50;99.90;;;;;;4939604;29;20228;-81
2022/11/03 07:33:37;;;;;;;15.60;14.50;;;6.60;99.90;;;;;;4933210;29;20203;-82
2022/11/03 07:36:07;;;;;;;16.57;15.47;;;6.70;99.90;;;;;;4938029;29;20202;-82
2022/11/03 07:38:33;;;;;;;15.73;14.43;;;6.80;99.90;;;;;;4938620;29;20196;-82
2022/11/03 07:41:00;;;;;;;15.70;14.70;;;7.00;99.90;;;;;;4938966;29;20222;-82
2022/11/03 07:43:31;;;;;;;15.83;14.73;;;7.10;99.90;;;;;;4938691;29;20228;-82
2022/11/03 07:46:01;;;;;;;14.67;13.67;;;7.20;99.90;;;;;;4937588;29;20214;-82
2022/11/03 07:48:33;;;;;;;14.80;13.80;;;7.30;99.90;;;;;;4936692;29;20682;-82
2022/11/03 07:51:06;;;;;;;14.03;13.03;;;7.40;99.90;;;;;;4936330;29;20739;-82
2022/11/03 07:53:39;;;;;;;13.87;12.87;;;7.60;99.90;;;;;;4938336;29;20235;-80
2022/11/03 07:56:15;;;;;;;13.97;13.07;;;7.70;99.90;;;;;;4945645;28;20220;-82
2022/11/03 07:58:42;;;;;;;12.90;12.00;;;7.90;99.90;;;;;;4937781;29;20264;-82
2022/11/03 08:01:24;;;;;;;12.67;11.87;;;8.00;99.90;;;;;;4936853;29;20759;-80
2022/11/03 08:03:52;;;;;;;14.50;13.47;;;8.20;99.90;;;;;;4937239;29;20210;-82
2022/11/03 08:06:19;;;;;;;14.10;13.20;;;8.20;99.90;;;;;;4935911;29;20202;-82
2022/11/03 08:08:46;;;;;;;14.70;13.70;;;8.40;99.90;;;;;;4937346;29;20602;-82
2022/11/03 08:11:13;;;;;;;13.77;12.80;;;8.50;99.90;;;;;;4935124;29;20219;-81
2022/11/03 08:13:39;;;;;;;15.03;14.03;;;8.40;99.90;;;;;;4936039;29;20191;-82
2022/11/03 08:16:07;;;;;;;13.37;12.33;;;8.40;99.90;;;;;;4936917;29;20201;-82
2022/11/03 08:18:35;;;;;;;14.33;13.33;;;8.40;99.90;;;;;;4935939;29;20199;-82
2022/11/03 08:21:02;;;;;;;7.00;6.40;;;8.40;99.90;;;;;;4935630;29;20605;-82
2022/11/03 08:23:29;;;;;;;6.00;5.40;;;8.40;99.90;;;;;;4937713;29;20195;-82
2022/11/03 08:25:56;;;;;;;7.83;5.90;;;8.50;99.90;;;;;;4935739;29;20636;-82
2022/11/03 08:28:23;;;;;;;6.37;5.40;;;8.50;99.90;;;;;;4937542;29;20201;-82
2022/11/03 08:30:50;;;;;;;8.30;5.80;;;8.60;99.90;;;;;;4935478;29;20226;-82
2022/11/03 08:33:17;;;;;;;6.53;5.93;;;8.60;99.90;;;;;;4937193;29;20211;-80
2022/11/03 08:35:45;;;;;;;6.57;5.67;;;8.60;99.90;;;;;;4936084;29;20206;-82
2022/11/03 08:38:12;;;;;;;12.83;11.83;;;8.80;99.90;;;;;;4936918;29;20254;-82
2022/11/03 08:40:39;;;;;;;14.37;13.37;;;8.90;99.90;;;;;;4931797;29;20199;-80
2022/11/03 08:43:05;;;;;;;13.80;12.73;;;9.00;99.90;;;;;;4935825;29;20238;-82
2022/11/03 08:45:32;;;;;;;13.70;12.53;;;9.10;99.90;;;;;;4936968;29;20203;-82
2022/11/03 08:47:59;;;;;;;14.33;13.03;;;9.20;99.90;;;;;;4935887;29;20627;-81
2022/11/03 08:50:26;;;;;;;14.60;13.40;;;9.30;99.90;;;;;;4936358;29;20238;-82
2022/11/03 08:52:54;;;;;;;13.67;12.67;;;9.40;99.90;;;;;;4937756;29;20242;-82
2022/11/03 08:55:21;;;;;;;13.73;12.53;;;9.50;99.90;;;;;;4937836;29;20207;-81
2022/11/03 08:57:48;;;;;;;13.87;12.87;;;9.60;99.90;;;;;;4937570;29;20191;-83
2022/11/03 09:00:16;;;;;;;12.70;11.77;;;9.70;99.90;;;;;;4935801;29;20199;-80
2022/11/03 09:02:43;;;;;;;12.63;11.73;;;9.70;99.90;;;;;;4936029;29;20243;-83
2022/11/03 09:05:11;;;;;;;11.90;11.03;;;9.70;99.90;;;;;;4935505;29;20668;-82
2022/11/03 09:07:38;;;;;;;13.77;12.77;;;9.80;99.90;;;;;;4935736;29;20200;-83
2022/11/03 09:10:10;;;;;;;13.33;12.33;;;9.80;99.90;;;;;;4935931;29;20216;-80
2022/11/03 09:12:37;;;;;;;8.63;7.73;;;9.80;99.90;;;;;;4932020;29;20640;-83
2022/11/03 09:15:05;;;;;;;11.73;10.60;;;9.80;99.90;;;;;;4941683;29;20196;-83
2022/11/03 09:17:32;;;;;;;12.50;11.60;;;9.80;99.90;;;;;;4941712;29;20231;-82
2022/11/03 09:19:59;;;;;;;10.80;9.70;;;9.90;99.90;;;;;;4939044;29;20219;-83
2022/11/03 09:22:26;;;;;;;9.40;8.63;;;9.90;99.90;;;;;;4939962;29;20231;-81
2022/11/03 09:24:53;;;;;;;9.17;8.47;;;10.00;99.90;;;;;;4940409;29;20204;-81
2022/11/03 09:27:21;;;;;;;8.80;8.10;;;10.10;99.90;;;;;;4939765;29;20207;-83
2022/11/03 09:29:48;;;;;;;10.70;9.80;;;10.30;99.90;;;;;;4939451;29;20211;-80
2022/11/03 09:32:15;;;;;;;13.27;12.27;;;10.50;99.90;;;;;;4939169;29;20274;-82
2022/11/03 09:34:42;;;;;;;13.80;12.80;;;10.70;99.90;;;;;;4940517;29;20210;-82
2022/11/03 09:37:09;;;;;;;13.70;12.60;;;10.70;99.90;;;;;;4942864;28;20279;-81
2022/11/03 09:39:36;;;;;;;12.57;11.67;;;10.90;99.90;;;;;;4939385;29;20746;-80
2022/11/03 09:42:03;;;;;;;13.50;12.50;;;11.10;99.90;;;;;;4939099;29;20220;-80
2022/11/03 09:44:33;;;;;;;13.13;12.23;;;11.20;99.90;;;;;;4934015;29;20208;-81
2022/11/03 09:47:00;;;;;;;13.33;12.33;;;11.20;99.90;;;;;;4939470;29;20268;-81
2022/11/03 09:49:30;;;;;;;13.70;12.70;;;11.10;99.90;;;;;;4934844;29;20601;-82
2022/11/03 09:51:57;;;;;;;12.40;11.47;;;11.00;99.90;;;;;;4940680;29;20222;-81
2022/11/03 09:54:26;;;;;;;12.47;11.47;;;11.00;99.90;;;;;;4940154;29;20200;-81
2022/11/03 09:56:53;;;;;;;13.40;12.40;;;11.00;99.90;;;;;;4939414;29;20200;-81
2022/11/03 09:59:22;;;;;;;14.13;13.10;;;10.80;99.90;;;;;;4938978;29;20209;-81
2022/11/03 10:01:53;;;;;;;13.23;12.33;;;10.70;99.90;;;;;;4938148;29;20223;-81
2022/11/03 10:04:24;;;;;;;13.43;12.43;;;10.60;99.90;;;;;;4940198;29;20247;-81
2022/11/03 10:06:51;;;;;;;13.57;12.47;;;10.70;99.90;;;;;;4938758;29;20247;-81
2022/11/03 10:09:22;;;;;;;14.27;13.27;;;10.60;99.90;;;;;;4938750;29;20208;-81
2022/11/03 10:11:50;;;;;;;14.03;13.13;;;10.60;99.90;;;;;;4938405;29;20223;-81
2022/11/03 10:14:18;;;;;;;15.17;13.93;;;10.60;99.90;;;;;;4938383;29;20208;-81
2022/11/03 10:16:50;;;;;;;15.23;14.23;;;10.80;99.90;;;;;;4940065;29;20248;-81
2022/11/03 10:19:19;;;;;;;14.90;13.87;;;10.80;99.90;;;;;;4943134;29;20682;-81
2022/11/03 10:21:46;;;;;;;15.60;14.40;;;10.80;99.90;;;;;;4939868;29;20220;-81
2022/11/03 10:24:13;;;;;;;15.00;13.87;;;10.80;99.90;;;;;;4938327;29;20205;-82
2022/11/03 10:26:45;;;;;;;15.00;14.00;;;10.80;99.90;;;;;;4938438;29;20205;-81
2022/11/03 10:29:19;;;;;;;14.37;13.37;;;10.80;99.90;;;;;;4938105;29;20549;-82
2022/11/03 10:31:50;;;;;;;14.30;13.30;;;10.90;99.90;;;;;;4937987;29;20250;-81
2022/11/03 10:34:34;;;;;;;14.30;13.20;;;10.90;99.90;;;;;;4939529;29;20215;-81
2022/11/03 10:37:16;;;;;;;13.67;12.73;;;11.00;99.90;;;;;;4936964;29;20206;-81
2022/11/03 10:39:43;;;;;;;5.50;4.77;;;11.10;99.90;;;;;;4932154;29;20724;-81
2022/11/03 10:42:19;;;;;;;7.00;4.80;;;11.00;99.90;;;;;;4939276;29;20248;-81
2022/11/03 10:44:46;;;;;;;6.33;4.93;;;11.30;99.90;;;;;;4937930;29;20230;-82
2022/11/03 10:47:23;;;;;;;8.27;7.40;;;11.40;99.90;;;;;;4937776;29;20546;-81
2022/11/03 10:49:53;;;;;;;6.47;4.40;;;11.50;99.90;;;;;;4932609;29;20215;-82
2022/11/03 10:52:22;;;;;;;12.20;11.23;;;11.60;99.90;;;;;;4937521;29;20232;-82
2022/11/03 10:54:50;;;;;;;6.53;4.80;;;11.80;99.90;;;;;;4937252;29;20208;-82
2022/11/03 10:57:18;;;;;;;8.77;6.33;;;11.80;99.90;;;;;;4938080;29;20225;-81
2022/11/03 10:59:46;;;;;;;11.93;11.03;;;11.90;99.90;;;;;;4938503;29;20274;-82
2022/11/03 11:02:18;;;;;;;13.97;12.23;;;12.00;99.90;;;;;;4939177;29;20231;-81
2022/11/03 11:04:46;;;;;;;12.20;11.30;;;12.00;99.90;;;;;;4932336;29;20199;-82
2022/11/03 11:07:22;;;;;;;12.20;11.20;;;12.10;99.90;;;;;;4935653;29;20201;-82
2022/11/03 11:09:49;;;;;;;12.20;11.20;;;12.20;99.90;;;;;;4937883;29;20193;-82
2022/11/03 11:12:18;;;;;;;12.40;11.40;;;12.30;99.90;;;;;;4937288;29;20266;-82
2022/11/03 11:15:28;;;;;;;12.33;11.30;;;12.30;99.90;;;;;;4937951;29;20290;-82
2022/11/03 11:17:55;;;;;;;11.57;10.53;;;12.30;99.90;;;;;;4933524;29;20211;-82
2022/11/03 11:20:35;;;;;;;6.73;4.73;;;12.30;99.90;;;;;;4936773;29;20599;-82
2022/11/03 11:23:48;;;;;;;11.47;10.67;;;12.40;99.90;;;;;;4937879;29;20226;-81
2022/11/03 11:26:43;;;;;;;7.73;7.13;;;12.50;99.90;;;;;;4935519;29;20209;-82
2022/11/03 11:29:43;;;;;;;6.07;4.90;;;12.50;99.90;;;;;;4937830;29;20580;-82
2022/11/03 11:32:47;;;;;;;5.03;4.43;;;12.50;99.90;;;;;;4938415;29;20306;-82
2022/11/03 11:35:18;;;;;;;7.30;4.40;;;12.60;99.90;;;;;;4936941;29;20203;-82
2022/11/03 11:37:45;;;;;;;5.63;4.60;;;12.60;99.90;;;;;;4938968;29;20206;-82
2022/11/03 11:40:13;;;;;;;6.13;4.73;;;12.60;99.90;;;;;;4938895;29;20250;-82
2022/11/03 11:43:25;;;;;;;8.53;5.10;;;12.70;99.90;;;;;;4937210;29;20223;-82
2022/11/03 11:46:38;;;;;;;7.97;5.33;;;12.70;99.90;;;;;;4892304;29;20234;-82
2022/11/03 11:49:18;;;;;;;6.67;4.97;;;12.70;99.90;;;;;;4930533;29;20199;-81
2022/11/03 11:51:44;;;;;;;9.97;8.73;;;12.70;99.90;;;;;;4937159;29;20715;-82
2022/11/03 11:54:16;;;;;;;6.80;4.30;;;12.80;99.90;;;;;;4938071;29;20541;-82
2022/11/03 11:56:44;;;;;;;7.17;6.47;;;12.90;99.90;;;;;;4936911;29;20238;-81
2022/11/03 11:59:17;;;;;;;8.60;7.70;;;13.00;99.90;;;;;;4938979;29;20199;-82
2022/11/03 12:01:50;;;;;;;11.60;10.77;;;13.00;99.90;;;;;;4936031;29;20724;-82
2022/11/03 12:04:21;;;;;;;7.70;6.27;;;13.10;99.90;;;;;;4937018;29;20781;-82
2022/11/03 12:06:48;;;;;;;6.57;4.53;;;13.10;99.90;;;;;;4937040;29;20211;-82
2022/11/03 12:09:17;;;;;;;4.63;4.17;;;13.10;99.90;;;;;;4937142;29;20234;-82
2022/11/03 12:11:47;;;;;;;5.47;4.87;;;13.10;99.90;;;;;;4937649;29;20282;-82
2022/11/03 12:14:23;;;;;;;6.10;4.50;;;13.10;99.90;;;;;;4936795;29;20206;-82
2022/11/03 12:16:51;;;;;;;8.57;5.10;;;13.10;99.90;;;;;;4938263;29;20203;-82
2022/11/03 12:19:39;;;;;;;6.73;4.63;;;13.10;99.90;;;;;;4936841;29;20299;-82
2022/11/03 12:22:08;;;;;;;7.13;4.47;;;13.10;99.90;;;;;;4937329;29;20223;-81
2022/11/03 12:24:48;;;;;;;7.60;4.50;;;13.00;99.90;;;;;;4936689;29;20203;-81
2022/11/03 12:27:39;;;;;;;5.07;4.10;;;13.00;99.90;;;;;;4936862;29;20262;-82
2022/11/03 12:30:12;;;;;;;5.60;4.80;;;13.00;99.90;;;;;;4936393;29;20200;-82
2022/11/03 12:32:40;;;;;;;6.20;4.60;;;12.90;99.90;;;;;;4938704;29;20211;-82
2022/11/03 12:35:08;;;;;;;11.93;10.83;;;12.90;99.90;;;;;;4936444;29;20199;-82
2022/11/03 12:37:35;;;;;;;11.70;10.80;;;12.90;99.90;;;;;;4936632;29;20685;-82
2022/11/03 12:40:02;;;;;;;11.57;10.57;;;13.00;99.90;;;;;;4938816;29;20223;-82
2022/11/03 12:42:29;;;;;;;11.10;10.30;;;13.00;99.90;;;;;;4941492;29;20223;-81
2022/11/03 12:44:56;;;;;;;11.53;10.63;;;13.00;99.90;;;;;;4943833;29;20200;-82
2022/11/03 12:47:23;;;;;;;9.73;9.03;;;13.00;99.90;;;;;;4944240;29;20211;-81
2022/11/03 12:49:51;;;;;;;12.13;11.13;;;13.00;99.90;;;;;;4948489;29;20266;-82
2022/11/03 12:52:18;;;;;;;13.77;12.83;;;12.90;99.90;;;;;;4948551;29;20314;-81
2022/11/03 12:54:45;;;;;;;12.37;11.33;;;12.90;99.90;;;;;;4947918;29;20199;-81
2022/11/03 12:57:12;;;;;;;11.23;10.23;;;12.90;99.90;;;;;;4947253;29;20199;-82
2022/11/03 12:59:39;;;;;;;12.37;11.27;;;12.90;99.90;;;;;;4936755;29;20207;-81
2022/11/03 13:02:06;;;;;;;12.53;11.53;;;12.90;99.90;;;;;;4940454;29;20227;-82
2022/11/03 13:04:33;;;;;;;14.67;13.53;;;12.90;99.90;;;;;;4942249;29;20219;-82
2022/11/03 13:07:01;;;;;;;14.57;13.30;;;12.80;99.90;;;;;;4941583;29;20199;-82
2022/11/03 13:09:28;;;;;;;14.00;12.90;;;12.80;99.90;;;;;;4941514;29;20225;-82
2022/11/03 13:14:39;;;;;;;15.17;14.10;;;12.60;99.90;;;;;;4941460;29;20225;-82
2022/11/03 13:17:06;;;;;;;14.90;13.67;;;12.50;99.90;;;;;;4942076;29;20546;-82
2022/11/03 13:19:33;;;;;;;13.17;12.23;;;12.50;99.90;;;;;;4941117;29;20219;-82
2022/11/03 13:22:01;;;;;;;13.80;12.73;;;12.60;99.90;;;;;;4941862;29;20278;-82
2022/11/03 13:24:28;;;;;;;14.27;13.17;;;12.60;99.90;;;;;;4934119;29;20196;-82
2022/11/03 13:26:55;;;;;;;16.33;15.23;;;12.60;99.90;;;;;;4941235;29;20211;-82
2022/11/03 13:29:21;;;;;;;16.77;14.17;;;12.60;99.90;;;;;;4940981;29;20611;-82
2022/11/03 13:31:48;;;;;;;15.10;14.00;;;12.50;99.90;;;;;;4941575;29;20667;-82
2022/11/03 13:34:15;;;;;;;15.27;14.03;;;12.50;99.90;;;;;;4942624;29;20216;-82
2022/11/03 13:36:42;;;;;;;14.30;13.30;;;12.50;99.90;;;;;;4935554;29;20203;-82
2022/11/03 13:39:11;;;;;;;14.50;13.47;;;12.40;99.90;;;;;;4942702;29;20200;-82
2022/11/03 13:41:38;;;;;;;15.03;13.90;;;12.50;99.90;;;;;;4941207;29;20219;-82
2022/11/03 13:44:05;;;;;;;15.30;14.20;;;12.50;99.90;;;;;;4940959;29;20294;-82
2022/11/03 13:46:32;;;;;;;15.83;14.63;;;12.40;99.90;;;;;;4940864;29;20575;-82
2022/11/03 13:48:58;;;;;;;15.43;14.23;;;12.40;99.90;;;;;;4941850;29;20624;-82
2022/11/03 13:51:25;;;;;;;15.03;13.87;;;12.40;99.90;;;;;;4942130;29;20212;-82
2022/11/03 13:53:52;;;;;;;17.53;16.23;;;12.40;99.90;;;;;;4941264;29;20196;-82
2022/11/03 13:56:20;;;;;;;14.17;13.17;;;12.40;99.90;;;;;;4941011;29;20207;-82
2022/11/03 13:58:48;;;;;;;14.23;13.23;;;12.40;99.90;;;;;;4941231;29;20199;-82
2022/11/03 14:01:15;;;;;;;13.80;12.70;;;12.40;99.90;;;;;;4939698;29;20269;-82
2022/11/03 14:03:41;;;;;;;10.80;9.90;;;12.40;99.90;;;;;;4939769;29;20215;-82
2022/11/03 14:06:08;;;;;;;7.00;5.90;;;12.50;99.90;;;;;;4940778;29;20207;-82
2022/11/03 14:08:35;;;;;;;7.23;5.90;;;12.50;99.90;;;;;;4941411;29;20204;-82
2022/11/03 14:12:29;;;;;;;6.93;5.37;;;12.60;99.90;;;;;;4940025;29;20222;-81
2022/11/03 14:13:50;;;;;;;9.13;7.00;;;12.50;99.90;;;;;;4940012;29;20203;-82
2022/11/03 14:16:17;;;;;;;7.07;6.00;;;12.50;99.90;;;;;;4940459;29;20208;-82
2022/11/03 14:18:44;;;;;;;14.20;13.10;;;12.50;99.90;;;;;;4940602;29;20210;-82
2022/11/03 14:21:11;;;;;;;13.00;12.10;;;12.50;99.90;;;;;;4941447;29;20214;-81
2022/11/03 14:23:38;;;;;;;12.20;11.40;;;12.60;99.90;;;;;;4932747;29;20310;-80
2022/11/03 14:26:05;;;;;;;7.30;5.20;;;12.80;99.90;;;;;;4939786;29;20222;-82
2022/11/03 14:28:32;;;;;;;8.47;7.77;;;12.90;99.90;;;;;;4938338;29;20206;-85
2022/11/03 14:31:02;;;;;;;5.20;4.50;;;13.00;99.90;;;;;;4937736;29;20253;-84
2022/11/03 14:33:29;;;;;;;11.50;10.70;;;13.20;99.90;;;;;;4941553;29;20214;-82
2022/11/03 14:35:56;;;;;;;12.40;11.57;;;13.20;99.90;;;;;;4938316;29;20719;-80
2022/11/03 14:38:22;;;;;;;10.97;10.20;;;13.30;99.90;;;;;;4938286;29;20199;-80
2022/11/03 14:43:34;;;;;;;11.40;10.63;;;13.30;99.90;;;;;;4931557;29;20243;-83
2022/11/03 14:46:02;;;;;;;11.73;10.90;;;13.30;99.90;;;;;;4934768;29;20208;-83
2022/11/03 14:48:29;;;;;;;11.40;10.50;;;13.40;99.90;;;;;;4931203;29;20206;-83
2022/11/03 14:50:56;;;;;;;11.20;10.40;;;13.30;99.90;;;;;;4939841;29;20725;-83
2022/11/03 14:53:22;;;;;;;11.30;10.50;;;13.30;99.90;;;;;;4937896;29;20235;-80
2022/11/03 14:55:49;;;;;;;10.27;9.53;;;13.30;99.90;;;;;;4939147;29;20214;-82
2022/11/03 14:58:16;;;;;;;10.47;9.77;;;13.30;99.90;;;;;;4937864;29;20220;-82
2022/11/03 15:00:43;;;;;;;11.27;10.43;;;13.30;99.90;;;;;;4937990;29;20228;-82
2022/11/03 15:03:12;;;;;;;11.40;10.60;;;13.30;99.90;;;;;;4935090;29;20211;-82
2022/11/03 15:05:45;;;;;;;11.53;10.73;;;13.30;99.90;;;;;;4939771;29;20676;-82
2022/11/03 15:08:12;;;;;;;11.53;10.70;;;13.20;99.90;;;;;;4939268;29;20279;-82
2022/11/03 15:10:39;;;;;;;12.60;11.80;;;13.20;99.90;;;;;;4938139;29;20204;-84
2022/11/03 15:13:06;;;;;;;14.23;13.23;;;13.20;99.90;;;;;;4937764;29;20207;-82
2022/11/03 15:15:34;;;;;;;14.13;12.67;;;13.20;99.90;;;;;;4941284;29;20205;-79
2022/11/03 15:18:01;;;;;;;10.47;9.67;;;13.20;99.90;;;;;;4933186;29;20646;-81
2022/11/03 15:20:53;;;;;;;10.13;6.57;;;13.20;99.90;;;;;;4939969;28;20798;-84
2022/11/03 15:23:21;;;;;;;11.87;7.33;;;13.10;99.90;;;;;;4938749;29;20258;-83
2022/11/03 15:25:49;;;;;;;17.23;8.57;;;13.10;99.90;;;;;;4945730;29;20211;-82
2022/11/03 15:28:16;;;;;;;15.17;11.97;;;13.10;99.90;;;;;;4934906;29;20714;-82
2022/11/03 15:30:45;;;;;;;17.63;14.70;;;13.10;99.90;;;;;;4939048;29;20671;-82
2022/11/03 15:33:12;;;;;;;13.57;12.37;;;13.00;99.90;;;;;;4940213;29;20199;-83
2022/11/03 15:35:39;;;;;;;10.77;6.63;;;13.00;99.90;;;;;;4930948;29;20200;-83
2022/11/03 15:38:07;;;;;;;10.07;9.23;;;13.00;99.90;;;;;;4938175;29;20199;-82
2022/11/03 15:40:34;;;;;;;12.43;11.53;;;13.00;99.90;;;;;;4937327;29;20191;-82
2022/11/03 15:43:09;;;;;;;12.80;11.80;;;12.90;99.90;;;;;;4937656;29;20339;-81
2022/11/03 15:45:57;;;;;;;12.77;11.80;;;12.90;99.90;;;;;;4936859;29;20656;-85
2022/11/03 15:48:24;;;;;;;12.30;11.30;;;12.80;99.90;;;;;;4932435;29;20583;-81
2022/11/03 15:50:51;;;;;;;12.47;11.47;;;12.80;99.90;;;;;;4936992;29;20223;-82
2022/11/03 15:53:19;;;;;;;12.90;11.90;;;12.70;99.90;;;;;;4936641;29;20195;-82
2022/11/03 15:55:46;;;;;;;12.67;11.53;;;12.70;99.90;;;;;;4939478;29;20199;-82
2022/11/03 15:58:12;;;;;;;12.80;11.70;;;12.70;99.90;;;;;;4937502;29;20653;-81
2022/11/03 16:00:39;;;;;;;13.13;12.07;;;12.60;99.90;;;;;;4936930;29;20215;-82
2022/11/03 16:03:06;;;;;;;13.40;12.23;;;12.60;99.90;;;;;;4938195;29;20206;-82
2022/11/03 16:05:33;;;;;;;12.83;11.83;;;12.60;99.90;;;;;;4936299;29;20218;-81
2022/11/03 16:08:00;;;;;;;13.00;12.00;;;12.50;99.90;;;;;;4933936;29;20198;-81